Tallahassee, Florida
Current Conditions -  °F | °C
As of 6:53 PM on Saturday 25 Oct 2014 (Local Time) from KTLH Reporting Station
Clear Clear  
Wind Chill: 23°   Ceiling: Unl
Heat Index: 23°   Visibility: 10mi
Dew Point:   Wind: 5mph
Humidity: 38%   Direction: 290°WNW
Pressure: 29.99"   Gusts: NA
Location:  30.44°N, 84.28°W
Report Text: KTLH 252253Z 29004KT 10SM CLR 23/08 A2999 RMK AO2 SLP154 T02280078 $
Loading
Personal Weather Stations






























Interactive Weather Map New forecast layout! Learn more

10-Day Weather Forecast

Advertisements
Track Severe Weather on mobile